DAOF

Details ICAO DAOF (TIN)
Name TINDOUF
Region Algeria
Timezone Africa/Algiers (UTC+1.0)
Plans Departing 8
Arriving 24
Stats Elevation 1,453 ft / 443 m (AMSL)
Location 27.700371° -8.167102°
Runways 2
Magnetic Variation 2.184° W
Sunrise 2018-05-20 05:42:33 UTC / 2018-05-20 06:42:33 Local
Sunset 2018-05-20 19:18:41 UTC / 2018-05-20 20:18:41 Local
Advertisement - Login to hide

Runways

ID Width Length Bearing (true) Bearing (mag) Surface Threshold Offset Overrun Length
08 150 ft / 46 m 9,816 ft / 2,992 m 75.53° 77.71° Asphalt 0 ft / 0 m 0 ft / 0 m
08R 150 ft / 46 m 9,828 ft / 2,996 m 75.54° 77.72° Asphalt 0 ft / 0 m 0 ft / 0 m
26 150 ft / 46 m 9,816 ft / 2,992 m 255.54° 257.72° Asphalt 0 ft / 0 m 0 ft / 0 m
26L 150 ft / 46 m 9,828 ft / 2,996 m 255.56° 257.74° Asphalt 0 ft / 0 m 0 ft / 0 m

Map

Weather


0- 5 10 15 20 25 30 35+ Temperature / ° C

Clouds and Precipitation
Forecast for 2018-05-20 12:00 UTC. Updated 2 hours ago

Ground ~20,000 ft ~40,000 ft Winds

METAR

DAOF 201300Z 26006KT CAVOK 30/03 Q1009

TAF

Not found
Warning: Do not use this data for real-world aviation or navigation. No guarantee of current accuracy is given.